sensor_id;sensor_type;location;lat;lon;timestamp;temperature;humidity
73149;SHT30;61346;48.930;2.266;2023-02-28T00:00:31;4.42;53.37
73149;SHT30;61346;48.930;2.266;2023-02-28T00:02:56;4.44;53.37
73149;SHT30;61346;48.930;2.266;2023-02-28T00:05:23;4.41;53.39
73149;SHT30;61346;48.930;2.266;2023-02-28T00:07:50;4.38;53.40
73149;SHT30;61346;48.930;2.266;2023-02-28T00:10:21;4.35;53.48
73149;SHT30;61346;48.930;2.266;2023-02-28T00:12:49;4.34;53.45
73149;SHT30;61346;48.930;2.266;2023-02-28T00:15:15;4.32;53.52
73149;SHT30;61346;48.930;2.266;2023-02-28T00:17:41;4.29;53.77
73149;SHT30;61346;48.930;2.266;2023-02-28T00:20:08;4.27;53.88
73149;SHT30;61346;48.930;2.266;2023-02-28T00:22:54;4.27;54.07
73149;SHT30;61346;48.930;2.266;2023-02-28T00:25:23;4.25;54.02
73149;SHT30;61346;48.930;2.266;2023-02-28T00:27:49;4.25;53.88
73149;SHT30;61346;48.930;2.266;2023-02-28T00:30:17;4.25;54.30
73149;SHT30;61346;48.930;2.266;2023-02-28T00:32:43;4.22;54.21
73149;SHT30;61346;48.930;2.266;2023-02-28T00:35:09;4.24;54.10
73149;SHT30;61346;48.930;2.266;2023-02-28T00:37:36;4.22;54.45
73149;SHT30;61346;48.930;2.266;2023-02-28T00:40:02;4.25;54.24
73149;SHT30;61346;48.930;2.266;2023-02-28T00:42:29;4.24;54.33
73149;SHT30;61346;48.930;2.266;2023-02-28T00:44:55;4.24;54.28
73149;SHT30;61346;48.930;2.266;2023-02-28T00:47:20;4.24;54.13
73149;SHT30;61346;48.930;2.266;2023-02-28T00:49:46;4.24;54.21
73149;SHT30;61346;48.930;2.266;2023-02-28T00:52:11;4.20;54.20
73149;SHT30;61346;48.930;2.266;2023-02-28T00:54:37;4.24;54.23
73149;SHT30;61346;48.930;2.266;2023-02-28T00:57:02;4.24;54.26
73149;SHT30;61346;48.930;2.266;2023-02-28T00:59:28;4.24;54.28
73149;SHT30;61346;48.930;2.266;2023-02-28T01:01:53;4.24;54.27
73149;SHT30;61346;48.930;2.266;2023-02-28T01:04:18;4.24;54.28
73149;SHT30;61346;48.930;2.266;2023-02-28T01:06:45;4.24;54.33
73149;SHT30;61346;48.930;2.266;2023-02-28T01:09:11;4.27;54.38
73149;SHT30;61346;48.930;2.266;2023-02-28T01:11:40;4.24;54.36
73149;SHT30;61346;48.930;2.266;2023-02-28T01:14:07;4.25;54.40
73149;SHT30;61346;48.930;2.266;2023-02-28T01:16:33;4.24;54.34
73149;SHT30;61346;48.930;2.266;2023-02-28T01:18:59;4.21;54.36
73149;SHT30;61346;48.930;2.266;2023-02-28T01:21:24;4.21;54.26
73149;SHT30;61346;48.930;2.266;2023-02-28T01:23:49;4.17;54.31
73149;SHT30;61346;48.930;2.266;2023-02-28T01:26:24;4.12;54.29
73149;SHT30;61346;48.930;2.266;2023-02-28T01:28:51;4.11;54.31
73149;SHT30;61346;48.930;2.266;2023-02-28T01:31:17;4.08;54.38
73149;SHT30;61346;48.930;2.266;2023-02-28T01:33:43;4.07;54.37
73149;SHT30;61346;48.930;2.266;2023-02-28T01:38:38;4.01;54.50
73149;SHT30;61346;48.930;2.266;2023-02-28T01:41:05;4.00;54.53
73149;SHT30;61346;48.930;2.266;2023-02-28T01:43:55;3.97;54.46
73149;SHT30;61346;48.930;2.266;2023-02-28T01:46:21;3.93;54.42
73149;SHT30;61346;48.930;2.266;2023-02-28T01:49:12;3.90;54.47
73149;SHT30;61346;48.930;2.266;2023-02-28T01:51:51;3.86;54.52
73149;SHT30;61346;48.930;2.266;2023-02-28T01:54:30;3.86;54.60
73149;SHT30;61346;48.930;2.266;2023-02-28T01:57:03;3.86;54.65
73149;SHT30;61346;48.930;2.266;2023-02-28T02:02:20;3.83;54.77
73149;SHT30;61346;48.930;2.266;2023-02-28T02:05:02;3.76;54.74
73149;SHT30;61346;48.930;2.266;2023-02-28T02:07:34;3.76;54.74
73149;SHT30;61346;48.930;2.266;2023-02-28T02:10:10;3.73;54.80
73149;SHT30;61346;48.930;2.266;2023-02-28T02:18:32;3.69;54.76
73149;SHT30;61346;48.930;2.266;2023-02-28T02:32:59;3.59;54.93
73149;SHT30;61346;48.930;2.266;2023-02-28T02:35:49;3.53;54.98
73149;SHT30;61346;48.930;2.266;2023-02-28T02:38:31;3.52;55.08
73149;SHT30;61346;48.930;2.266;2023-02-28T02:41:19;3.52;55.15
73149;SHT30;61346;48.930;2.266;2023-02-28T02:43:56;3.52;55.05
73149;SHT30;61346;48.930;2.266;2023-02-28T02:46:34;3.52;55.05
73149;SHT30;61346;48.930;2.266;2023-02-28T02:49:05;3.51;55.07
73149;SHT30;61346;48.930;2.266;2023-02-28T02:51:32;3.49;54.99
73149;SHT30;61346;48.930;2.266;2023-02-28T02:54:17;3.46;55.04
73149;SHT30;61346;48.930;2.266;2023-02-28T02:56:47;3.42;55.02
73149;SHT30;61346;48.930;2.266;2023-02-28T02:59:16;3.42;54.95
73149;SHT30;61346;48.930;2.266;2023-02-28T03:02:10;3.39;54.98
73149;SHT30;61346;48.930;2.266;2023-02-28T03:04:42;3.36;54.97
73149;SHT30;61346;48.930;2.266;2023-02-28T03:07:09;3.35;55.04
73149;SHT30;61346;48.930;2.266;2023-02-28T03:09:34;3.35;55.07
73149;SHT30;61346;48.930;2.266;2023-02-28T03:12:08;3.31;55.07
73149;SHT30;61346;48.930;2.266;2023-02-28T03:23:10;3.25;55.13
73149;SHT30;61346;48.930;2.266;2023-02-28T03:31:17;3.19;55.17
73149;SHT30;61346;48.930;2.266;2023-02-28T03:33:53;3.18;55.21
73149;SHT30;61346;48.930;2.266;2023-02-28T03:36:24;3.17;55.21
73149;SHT30;61346;48.930;2.266;2023-02-28T03:38:56;3.14;55.22
73149;SHT30;61346;48.930;2.266;2023-02-28T03:41:36;3.12;55.21
73149;SHT30;61346;48.930;2.266;2023-02-28T03:44:10;3.12;55.23
73149;SHT30;61346;48.930;2.266;2023-02-28T03:46:44;3.11;55.20
73149;SHT30;61346;48.930;2.266;2023-02-28T03:49:21;3.08;55.27
73149;SHT30;61346;48.930;2.266;2023-02-28T03:51:50;3.08;55.23
73149;SHT30;61346;48.930;2.266;2023-02-28T03:54:25;3.05;55.22
73149;SHT30;61346;48.930;2.266;2023-02-28T03:57:05;3.05;55.20
73149;SHT30;61346;48.930;2.266;2023-02-28T03:59:37;3.05;55.25
73149;SHT30;61346;48.930;2.266;2023-02-28T04:02:05;3.01;55.31
73149;SHT30;61346;48.930;2.266;2023-02-28T04:04:31;2.98;55.29
73149;SHT30;61346;48.930;2.266;2023-02-28T04:07:03;2.97;55.31
73149;SHT30;61346;48.930;2.266;2023-02-28T04:09:36;2.96;55.32
73149;SHT30;61346;48.930;2.266;2023-02-28T04:12:02;2.96;55.37
73149;SHT30;61346;48.930;2.266;2023-02-28T04:14:27;2.93;55.36
73149;SHT30;61346;48.930;2.266;2023-02-28T04:16:53;2.91;55.36
73149;SHT30;61346;48.930;2.266;2023-02-28T04:19:18;2.89;55.38
73149;SHT30;61346;48.930;2.266;2023-02-28T04:21:48;2.87;55.44
73149;SHT30;61346;48.930;2.266;2023-02-28T04:24:17;2.86;55.47
73149;SHT30;61346;48.930;2.266;2023-02-28T04:26:45;2.86;55.48
73149;SHT30;61346;48.930;2.266;2023-02-28T04:29:13;2.84;55.53
73149;SHT30;61346;48.930;2.266;2023-02-28T04:31:39;2.84;55.56
73149;SHT30;61346;48.930;2.266;2023-02-28T04:34:04;2.80;55.57
73149;SHT30;61346;48.930;2.266;2023-02-28T04:36:31;2.79;55.59
73149;SHT30;61346;48.930;2.266;2023-02-28T04:38:57;2.77;55.63
73149;SHT30;61346;48.930;2.266;2023-02-28T04:41:22;2.76;55.64
73149;SHT30;61346;48.930;2.266;2023-02-28T04:43:48;2.76;55.71
73149;SHT30;61346;48.930;2.266;2023-02-28T04:46:13;2.73;55.72
73149;SHT30;61346;48.930;2.266;2023-02-28T04:48:40;2.70;55.69
73149;SHT30;61346;48.930;2.266;2023-02-28T04:51:08;2.70;55.70
73149;SHT30;61346;48.930;2.266;2023-02-28T04:53:34;2.72;55.82
73149;SHT30;61346;48.930;2.266;2023-02-28T04:55:59;2.69;55.82
73149;SHT30;61346;48.930;2.266;2023-02-28T04:58:25;2.70;55.85
73149;SHT30;61346;48.930;2.266;2023-02-28T05:00:52;2.66;55.87
73149;SHT30;61346;48.930;2.266;2023-02-28T05:03:18;2.64;55.90
73149;SHT30;61346;48.930;2.266;2023-02-28T05:05:43;2.62;55.96
73149;SHT30;61346;48.930;2.266;2023-02-28T05:08:08;2.64;55.95
73149;SHT30;61346;48.930;2.266;2023-02-28T05:10:36;2.62;55.99
73149;SHT30;61346;48.930;2.266;2023-02-28T05:13:01;2.59;56.00
73149;SHT30;61346;48.930;2.266;2023-02-28T05:15:27;2.59;56.05
73149;SHT30;61346;48.930;2.266;2023-02-28T05:17:52;2.57;56.13
73149;SHT30;61346;48.930;2.266;2023-02-28T05:20:18;2.54;56.21
73149;SHT30;61346;48.930;2.266;2023-02-28T05:22:44;2.56;56.23
73149;SHT30;61346;48.930;2.266;2023-02-28T05:25:17;2.54;56.31
73149;SHT30;61346;48.930;2.266;2023-02-28T05:27:45;2.50;56.25
73149;SHT30;61346;48.930;2.266;2023-02-28T05:30:10;2.50;56.29
73149;SHT30;61346;48.930;2.266;2023-02-28T05:32:37;2.49;56.35
73149;SHT30;61346;48.930;2.266;2023-02-28T05:35:03;2.49;56.39
73149;SHT30;61346;48.930;2.266;2023-02-28T05:37:29;2.46;56.43
73149;SHT30;61346;48.930;2.266;2023-02-28T05:39:54;2.45;56.52
73149;SHT30;61346;48.930;2.266;2023-02-28T05:42:20;2.42;56.54
73149;SHT30;61346;48.930;2.266;2023-02-28T05:44:46;2.42;56.57
73149;SHT30;61346;48.930;2.266;2023-02-28T05:47:12;2.39;56.64
73149;SHT30;61346;48.930;2.266;2023-02-28T05:49:40;2.38;56.71
73149;SHT30;61346;48.930;2.266;2023-02-28T05:52:06;2.35;56.80
73149;SHT30;61346;48.930;2.266;2023-02-28T05:54:31;2.33;56.88
73149;SHT30;61346;48.930;2.266;2023-02-28T05:56:57;2.33;56.91
73149;SHT30;61346;48.930;2.266;2023-02-28T05:59:22;2.29;56.94
73149;SHT30;61346;48.930;2.266;2023-02-28T06:01:51;2.29;56.98
73149;SHT30;61346;48.930;2.266;2023-02-28T06:04:19;2.28;57.03
73149;SHT30;61346;48.930;2.266;2023-02-28T06:06:48;2.28;57.08
73149;SHT30;61346;48.930;2.266;2023-02-28T06:09:14;2.25;57.15
73149;SHT30;61346;48.930;2.266;2023-02-28T06:11:40;2.24;57.20
73149;SHT30;61346;48.930;2.266;2023-02-28T06:14:06;2.24;57.25
73149;SHT30;61346;48.930;2.266;2023-02-28T06:16:34;2.24;57.32
73149;SHT30;61346;48.930;2.266;2023-02-28T06:19:01;2.26;57.39
73149;SHT30;61346;48.930;2.266;2023-02-28T06:21:28;2.24;57.44
73149;SHT30;61346;48.930;2.266;2023-02-28T06:23:54;2.22;57.47
73149;SHT30;61346;48.930;2.266;2023-02-28T06:26:19;2.24;57.55
73149;SHT30;61346;48.930;2.266;2023-02-28T06:28:45;2.22;57.58
73149;SHT30;61346;48.930;2.266;2023-02-28T06:31:12;2.20;57.68
73149;SHT30;61346;48.930;2.266;2023-02-28T06:33:39;2.18;57.69
73149;SHT30;61346;48.930;2.266;2023-02-28T06:36:06;2.18;57.75
73149;SHT30;61346;48.930;2.266;2023-02-28T06:38:32;2.20;57.78
73149;SHT30;61346;48.930;2.266;2023-02-28T06:40:59;2.18;57.78
73149;SHT30;61346;48.930;2.266;2023-02-28T06:43:28;2.15;57.88
73149;SHT30;61346;48.930;2.266;2023-02-28T06:45:55;2.15;57.92
73149;SHT30;61346;48.930;2.266;2023-02-28T06:48:21;2.13;57.96
73149;SHT30;61346;48.930;2.266;2023-02-28T06:50:46;2.14;58.03
73149;SHT30;61346;48.930;2.266;2023-02-28T06:53:12;2.14;58.05
73149;SHT30;61346;48.930;2.266;2023-02-28T06:55:39;2.15;58.10
73149;SHT30;61346;48.930;2.266;2023-02-28T06:58:04;2.14;58.19
73149;SHT30;61346;48.930;2.266;2023-02-28T07:00:40;2.15;58.25
73149;SHT30;61346;48.930;2.266;2023-02-28T07:03:13;2.17;58.28
73149;SHT30;61346;48.930;2.266;2023-02-28T07:05:40;2.17;58.39
73149;SHT30;61346;48.930;2.266;2023-02-28T07:08:06;2.22;58.44
73149;SHT30;61346;48.930;2.266;2023-02-28T07:10:33;2.20;58.50
73149;SHT30;61346;48.930;2.266;2023-02-28T07:12:59;2.21;58.45
73149;SHT30;61346;48.930;2.266;2023-02-28T07:15:25;2.24;58.50
73149;SHT30;61346;48.930;2.266;2023-02-28T07:17:50;2.24;58.59
73149;SHT30;61346;48.930;2.266;2023-02-28T07:20:16;2.28;58.88
73149;SHT30;61346;48.930;2.266;2023-02-28T07:22:42;2.29;58.72
73149;SHT30;61346;48.930;2.266;2023-02-28T07:25:08;2.31;58.77
73149;SHT30;61346;48.930;2.266;2023-02-28T07:27:34;2.35;58.85
73149;SHT30;61346;48.930;2.266;2023-02-28T07:30:01;2.36;58.82
73149;SHT30;61346;48.930;2.266;2023-02-28T07:32:30;2.41;58.93
73149;SHT30;61346;48.930;2.266;2023-02-28T07:34:56;2.43;58.99
73149;SHT30;61346;48.930;2.266;2023-02-28T07:37:21;2.45;59.03
73149;SHT30;61346;48.930;2.266;2023-02-28T07:39:47;2.48;59.02
73149;SHT30;61346;48.930;2.266;2023-02-28T07:42:12;2.49;59.04
73149;SHT30;61346;48.930;2.266;2023-02-28T07:44:39;2.53;59.03
73149;SHT30;61346;48.930;2.266;2023-02-28T07:47:09;2.56;59.04
73149;SHT30;61346;48.930;2.266;2023-02-28T07:49:36;2.60;59.15
73149;SHT30;61346;48.930;2.266;2023-02-28T07:52:03;2.64;59.15
73149;SHT30;61346;48.930;2.266;2023-02-28T07:54:32;2.66;59.26
73149;SHT30;61346;48.930;2.266;2023-02-28T07:56:58;2.72;59.31
73149;SHT30;61346;48.930;2.266;2023-02-28T07:59:23;2.73;59.41
73149;SHT30;61346;48.930;2.266;2023-02-28T08:01:49;2.76;59.45
73149;SHT30;61346;48.930;2.266;2023-02-28T08:04:20;2.77;59.37
73149;SHT30;61346;48.930;2.266;2023-02-28T08:06:45;2.84;59.29
73149;SHT30;61346;48.930;2.266;2023-02-28T08:09:11;2.89;59.45
73149;SHT30;61346;48.930;2.266;2023-02-28T08:11:37;2.93;59.32
73149;SHT30;61346;48.930;2.266;2023-02-28T08:14:03;2.98;59.32
73149;SHT30;61346;48.930;2.266;2023-02-28T08:16:43;3.04;59.34
73149;SHT30;61346;48.930;2.266;2023-02-28T08:19:08;3.09;59.32
73149;SHT30;61346;48.930;2.266;2023-02-28T08:21:35;3.11;59.26
73149;SHT30;61346;48.930;2.266;2023-02-28T08:24:00;3.15;59.43
73149;SHT30;61346;48.930;2.266;2023-02-28T08:26:26;3.18;59.38
73149;SHT30;61346;48.930;2.266;2023-02-28T08:28:51;3.22;59.31
73149;SHT30;61346;48.930;2.266;2023-02-28T08:31:17;3.29;59.35
73149;SHT30;61346;48.930;2.266;2023-02-28T08:33:52;3.34;59.33
73149;SHT30;61346;48.930;2.266;2023-02-28T08:36:20;3.39;59.27
73149;SHT30;61346;48.930;2.266;2023-02-28T08:38:45;3.43;59.33
73149;SHT30;61346;48.930;2.266;2023-02-28T08:41:12;3.48;59.44
73149;SHT30;61346;48.930;2.266;2023-02-28T08:43:40;3.52;59.38
73149;SHT30;61346;48.930;2.266;2023-02-28T08:46:06;3.58;59.26
73149;SHT30;61346;48.930;2.266;2023-02-28T08:48:34;3.63;59.21
73149;SHT30;61346;48.930;2.266;2023-02-28T08:51:06;3.70;59.18
73149;SHT30;61346;48.930;2.266;2023-02-28T08:53:33;3.77;59.17
73149;SHT30;61346;48.930;2.266;2023-02-28T08:56:00;3.84;59.17
73149;SHT30;61346;48.930;2.266;2023-02-28T08:58:27;3.93;59.13
73149;SHT30;61346;48.930;2.266;2023-02-28T09:00:53;3.98;59.11
73149;SHT30;61346;48.930;2.266;2023-02-28T09:03:19;4.04;59.21
73149;SHT30;61346;48.930;2.266;2023-02-28T09:06:01;4.08;59.04
73149;SHT30;61346;48.930;2.266;2023-02-28T09:08:28;4.18;59.00
73149;SHT30;61346;48.930;2.266;2023-02-28T09:10:55;4.24;58.91
73149;SHT30;61346;48.930;2.266;2023-02-28T09:13:24;4.31;58.82
73149;SHT30;61346;48.930;2.266;2023-02-28T09:15:49;4.32;58.78
73149;SHT30;61346;48.930;2.266;2023-02-28T09:18:15;4.37;58.76
73149;SHT30;61346;48.930;2.266;2023-02-28T09:20:41;4.46;58.69
73149;SHT30;61346;48.930;2.266;2023-02-28T09:23:08;4.53;58.67
73149;SHT30;61346;48.930;2.266;2023-02-28T09:25:37;4.58;58.65
73149;SHT30;61346;48.930;2.266;2023-02-28T09:28:03;4.66;58.66
73149;SHT30;61346;48.930;2.266;2023-02-28T09:30:29;4.72;58.53
73149;SHT30;61346;48.930;2.266;2023-02-28T09:32:57;4.75;58.46
73149;SHT30;61346;48.930;2.266;2023-02-28T09:35:26;4.80;58.42
73149;SHT30;61346;48.930;2.266;2023-02-28T09:38:04;4.86;58.33
73149;SHT30;61346;48.930;2.266;2023-02-28T09:40:30;4.94;58.31
73149;SHT30;61346;48.930;2.266;2023-02-28T09:42:57;4.97;58.20
73149;SHT30;61346;48.930;2.266;2023-02-28T09:45:38;5.00;58.11
73149;SHT30;61346;48.930;2.266;2023-02-28T09:48:16;5.05;58.08
73149;SHT30;61346;48.930;2.266;2023-02-28T09:50:48;5.13;58.02
73149;SHT30;61346;48.930;2.266;2023-02-28T09:53:27;5.18;58.01
73149;SHT30;61346;48.930;2.266;2023-02-28T09:56:21;5.24;57.92
73149;SHT30;61346;48.930;2.266;2023-02-28T10:02:45;5.51;57.82
73149;SHT30;61346;48.930;2.266;2023-02-28T10:05:13;5.56;57.70
73149;SHT30;61346;48.930;2.266;2023-02-28T10:10:39;5.66;57.55
73149;SHT30;61346;48.930;2.266;2023-02-28T10:13:34;5.67;57.56
73149;SHT30;61346;48.930;2.266;2023-02-28T10:16:17;5.74;57.48
73149;SHT30;61346;48.930;2.266;2023-02-28T10:19:05;5.81;57.43
73149;SHT30;61346;48.930;2.266;2023-02-28T10:21:56;5.87;57.31
73149;SHT30;61346;48.930;2.266;2023-02-28T10:25:11;5.94;57.30
73149;SHT30;61346;48.930;2.266;2023-02-28T10:27:41;6.00;57.30
73149;SHT30;61346;48.930;2.266;2023-02-28T10:30:24;6.10;57.22
73149;SHT30;61346;48.930;2.266;2023-02-28T10:32:51;6.22;57.24
73149;SHT30;61346;48.930;2.266;2023-02-28T10:35:38;6.32;56.93
73149;SHT30;61346;48.930;2.266;2023-02-28T10:41:16;6.65;56.30
73149;SHT30;61346;48.930;2.266;2023-02-28T10:44:44;6.83;55.84
73149;SHT30;61346;48.930;2.266;2023-02-28T10:47:19;7.08;56.11
73149;SHT30;61346;48.930;2.266;2023-02-28T10:49:49;7.39;56.03
73149;SHT30;61346;48.930;2.266;2023-02-28T10:52:33;7.66;55.46
73149;SHT30;61346;48.930;2.266;2023-02-28T10:55:20;7.83;55.03
73149;SHT30;61346;48.930;2.266;2023-02-28T10:57:47;7.94;54.82
73149;SHT30;61346;48.930;2.266;2023-02-28T11:00:26;7.94;53.84
73149;SHT30;61346;48.930;2.266;2023-02-28T11:02:59;7.93;52.70
73149;SHT30;61346;48.930;2.266;2023-02-28T11:05:33;7.93;53.18
73149;SHT30;61346;48.930;2.266;2023-02-28T11:08:10;8.01;53.26
73149;SHT30;61346;48.930;2.266;2023-02-28T13:24:54;14.38;43.49
73149;SHT30;61346;48.930;2.266;2023-02-28T13:29:53;14.34;42.29
73149;SHT30;61346;48.930;2.266;2023-02-28T13:32:45;14.22;43.51
73149;SHT30;61346;48.930;2.266;2023-02-28T13:44:15;12.84;40.50
73149;SHT30;61346;48.930;2.266;2023-02-28T13:49:29;12.79;42.76
73149;SHT30;61346;48.930;2.266;2023-02-28T13:52:27;12.88;42.94
73149;SHT30;61346;48.930;2.266;2023-02-28T14:01:49;14.13;42.52
73149;SHT30;61346;48.930;2.266;2023-02-28T14:08:21;13.41;40.82
73149;SHT30;61346;48.930;2.266;2023-02-28T14:16:45;12.20;41.76
73149;SHT30;61346;48.930;2.266;2023-02-28T14:32:15;11.74;41.41
73149;SHT30;61346;48.930;2.266;2023-02-28T14:37:56;11.21;39.72
73149;SHT30;61346;48.930;2.266;2023-02-28T14:44:23;10.92;41.78
73149;SHT30;61346;48.930;2.266;2023-02-28T14:47:28;11.03;42.14
73149;SHT30;61346;48.930;2.266;2023-02-28T15:09:32;11.31;42.27
73149;SHT30;61346;48.930;2.266;2023-02-28T15:12:20;11.45;40.76
73149;SHT30;61346;48.930;2.266;2023-02-28T15:15:13;11.31;39.20
73149;SHT30;61346;48.930;2.266;2023-02-28T15:39:47;10.52;41.83
73149;SHT30;61346;48.930;2.266;2023-02-28T15:52:43;10.31;41.47
73149;SHT30;61346;48.930;2.266;2023-02-28T15:55:31;10.13;41.60
73149;SHT30;61346;48.930;2.266;2023-02-28T16:01:38;9.85;40.48
73149;SHT30;61346;48.930;2.266;2023-02-28T16:06:40;9.53;40.16
73149;SHT30;61346;48.930;2.266;2023-02-28T16:12:01;9.31;41.50
73149;SHT30;61346;48.930;2.266;2023-02-28T16:14:51;9.23;41.51
73149;SHT30;61346;48.930;2.266;2023-02-28T16:25:03;9.15;41.84
73149;SHT30;61346;48.930;2.266;2023-02-28T16:31:21;9.18;41.82
73149;SHT30;61346;48.930;2.266;2023-02-28T16:33:52;9.13;42.18
73149;SHT30;61346;48.930;2.266;2023-02-28T16:36:23;9.11;42.03
73149;SHT30;61346;48.930;2.266;2023-02-28T16:38:50;9.03;41.67
73149;SHT30;61346;48.930;2.266;2023-02-28T16:44:34;8.81;42.26
73149;SHT30;61346;48.930;2.266;2023-02-28T16:47:10;8.73;41.50
73149;SHT30;61346;48.930;2.266;2023-02-28T16:49:36;8.66;42.00
73149;SHT30;61346;48.930;2.266;2023-02-28T16:52:07;8.59;41.81
73149;SHT30;61346;48.930;2.266;2023-02-28T16:54:55;8.51;42.25
73149;SHT30;61346;48.930;2.266;2023-02-28T16:57:23;8.44;42.44
73149;SHT30;61346;48.930;2.266;2023-02-28T17:00:21;8.32;42.44
73149;SHT30;61346;48.930;2.266;2023-02-28T17:08:24;8.05;42.63
73149;SHT30;61346;48.930;2.266;2023-02-28T17:11:02;8.04;42.82
73149;SHT30;61346;48.930;2.266;2023-02-28T17:13:48;7.95;42.77
73149;SHT30;61346;48.930;2.266;2023-02-28T17:16:32;7.84;42.66
73149;SHT30;61346;48.930;2.266;2023-02-28T17:18:59;7.76;42.77
73149;SHT30;61346;48.930;2.266;2023-02-28T17:21:31;7.66;42.94
73149;SHT30;61346;48.930;2.266;2023-02-28T17:24:30;7.52;42.98
73149;SHT30;61346;48.930;2.266;2023-02-28T17:27:09;7.42;43.00
73149;SHT30;61346;48.930;2.266;2023-02-28T17:29:35;7.35;43.16
73149;SHT30;61346;48.930;2.266;2023-02-28T17:32:00;7.24;43.25
73149;SHT30;61346;48.930;2.266;2023-02-28T17:34:25;7.18;43.30
73149;SHT30;61346;48.930;2.266;2023-02-28T17:37:15;7.11;42.85
73149;SHT30;61346;48.930;2.266;2023-02-28T17:39:40;7.08;43.47
73149;SHT30;61346;48.930;2.266;2023-02-28T21:39:24;6.18;46.63
73149;SHT30;61346;48.930;2.266;2023-02-28T21:41:52;6.15;46.63
73149;SHT30;61346;48.930;2.266;2023-02-28T21:44:17;6.13;46.68
73149;SHT30;61346;48.930;2.266;2023-02-28T21:46:48;6.10;46.68
73149;SHT30;61346;48.930;2.266;2023-02-28T21:53:07;6.01;46.70
73149;SHT30;61346;48.930;2.266;2023-02-28T21:58:19;5.93;46.73
73149;SHT30;61346;48.930;2.266;2023-02-28T22:00:45;5.86;46.74
73149;SHT30;61346;48.930;2.266;2023-02-28T22:03:12;5.81;46.81
73149;SHT30;61346;48.930;2.266;2023-02-28T22:05:40;5.73;46.84
73149;SHT30;61346;48.930;2.266;2023-02-28T22:08:06;5.69;46.90
73149;SHT30;61346;48.930;2.266;2023-02-28T22:10:33;5.60;46.93
73149;SHT30;61346;48.930;2.266;2023-02-28T22:12:59;5.53;46.93
73149;SHT30;61346;48.930;2.266;2023-02-28T22:15:34;5.48;47.02
73149;SHT30;61346;48.930;2.266;2023-02-28T22:21:05;5.38;47.16
73149;SHT30;61346;48.930;2.266;2023-02-28T22:23:44;5.28;47.27
73149;SHT30;61346;48.930;2.266;2023-02-28T22:26:12;5.25;47.29
73149;SHT30;61346;48.930;2.266;2023-02-28T22:28:38;5.20;47.40
73149;SHT30;61346;48.930;2.266;2023-02-28T22:31:17;5.14;47.34
73149;SHT30;61346;48.930;2.266;2023-02-28T22:33:43;5.11;47.38
73149;SHT30;61346;48.930;2.266;2023-02-28T22:36:11;5.10;47.48
73149;SHT30;61346;48.930;2.266;2023-02-28T22:38:37;5.03;47.51
73149;SHT30;61346;48.930;2.266;2023-02-28T22:41:03;5.01;47.81
73149;SHT30;61346;48.930;2.266;2023-02-28T22:43:31;4.98;47.60
73149;SHT30;61346;48.930;2.266;2023-02-28T22:46:14;4.93;47.67
73149;SHT30;61346;48.930;2.266;2023-02-28T22:48:39;4.90;47.71
73149;SHT30;61346;48.930;2.266;2023-02-28T22:51:12;4.87;47.82
73149;SHT30;61346;48.930;2.266;2023-02-28T22:57:20;4.77;47.82
73149;SHT30;61346;48.930;2.266;2023-02-28T23:00:34;4.75;48.10
73149;SHT30;61346;48.930;2.266;2023-02-28T23:03:23;4.69;47.94
73149;SHT30;61346;48.930;2.266;2023-02-28T23:05:52;4.67;48.00
73149;SHT30;61346;48.930;2.266;2023-02-28T23:08:37;4.65;48.02
73149;SHT30;61346;48.930;2.266;2023-02-28T23:11:06;4.63;48.10
73149;SHT30;61346;48.930;2.266;2023-02-28T23:13:32;4.60;48.12
73149;SHT30;61346;48.930;2.266;2023-02-28T23:15:57;4.58;48.14
73149;SHT30;61346;48.930;2.266;2023-02-28T23:18:23;4.58;48.19
73149;SHT30;61346;48.930;2.266;2023-02-28T23:21:00;4.55;48.18
73149;SHT30;61346;48.930;2.266;2023-02-28T23:23:28;4.53;48.21
73149;SHT30;61346;48.930;2.266;2023-02-28T23:25:54;4.50;48.35
73149;SHT30;61346;48.930;2.266;2023-02-28T23:28:19;4.50;48.42
73149;SHT30;61346;48.930;2.266;2023-02-28T23:30:47;4.49;48.39
73149;SHT30;61346;48.930;2.266;2023-02-28T23:33:13;4.46;48.46
73149;SHT30;61346;48.930;2.266;2023-02-28T23:35:38;4.42;48.48
73149;SHT30;61346;48.930;2.266;2023-02-28T23:38:04;4.41;48.56
73149;SHT30;61346;48.930;2.266;2023-02-28T23:40:29;4.41;48.62
73149;SHT30;61346;48.930;2.266;2023-02-28T23:43:25;4.39;48.63
73149;SHT30;61346;48.930;2.266;2023-02-28T23:46:06;4.41;48.68
73149;SHT30;61346;48.930;2.266;2023-02-28T23:48:36;4.35;48.71
73149;SHT30;61346;48.930;2.266;2023-02-28T23:51:10;4.34;48.91
73149;SHT30;61346;48.930;2.266;2023-02-28T23:53:42;4.34;48.81
73149;SHT30;61346;48.930;2.266;2023-02-28T23:56:34;4.31;48.87
73149;SHT30;61346;48.930;2.266;2023-02-28T23:58:59;4.29;49.03
